createdAt,value
2017-04-17T00:00:07.892Z,982.8
2017-04-17T00:01:10.320Z,982.5
2017-04-17T00:02:12.699Z,982.8
2017-04-17T00:03:15.126Z,982.8
2017-04-17T00:04:17.661Z,982.8
2017-04-17T00:05:20.133Z,982.7
2017-04-17T00:06:22.602Z,982.8
2017-04-17T00:07:25.048Z,982.7
2017-04-17T00:08:27.451Z,982.8
2017-04-17T00:09:29.930Z,982.7
2017-04-17T00:10:32.326Z,982.7
2017-04-17T00:11:34.712Z,982.7
2017-04-17T00:12:37.124Z,982.7
2017-04-17T00:13:39.562Z,982.7
2017-04-17T00:14:41.974Z,982.6
2017-04-17T00:15:44.354Z,982.7
2017-04-17T00:16:46.786Z,982.6
2017-04-17T00:17:49.197Z,982.7
2017-04-17T00:18:51.646Z,982.6
2017-04-17T00:19:54.065Z,982.6
2017-04-17T00:20:56.471Z,982.7
2017-04-17T00:21:58.938Z,982.7
2017-04-17T00:23:01.357Z,982.6
2017-04-17T00:24:03.945Z,982.6
2017-04-17T00:25:06.507Z,982.7
2017-04-17T00:26:08.967Z,982.7
2017-04-17T00:27:11.458Z,982.7
2017-04-17T00:28:13.877Z,982.6
2017-04-17T00:29:16.283Z,982.6
2017-04-17T00:30:18.700Z,982.7
2017-04-17T00:31:21.073Z,982.7
2017-04-17T00:32:23.523Z,982.6
2017-04-17T00:33:26.007Z,982.6
2017-04-17T00:34:28.426Z,982.6
2017-04-17T00:35:30.946Z,982.6
2017-04-17T00:36:33.351Z,982.6
2017-04-17T00:37:35.788Z,982.6
2017-04-17T00:38:38.284Z,982.6
2017-04-17T00:39:40.724Z,982.6
2017-04-17T00:40:43.129Z,982.3
2017-04-17T00:41:45.508Z,982.6
2017-04-17T00:42:47.906Z,982.6
2017-04-17T00:43:50.296Z,982.6
2017-04-17T00:44:52.972Z,982.6
2017-04-17T00:45:55.370Z,982.6
2017-04-17T00:46:57.797Z,982.6
2017-04-17T00:48:00.203Z,982.6
2017-04-17T00:49:02.613Z,982.6
2017-04-17T00:50:04.999Z,982.5
2017-04-17T00:51:07.398Z,982.6
2017-04-17T00:52:09.918Z,982.5
2017-04-17T00:53:12.333Z,982.5
2017-04-17T00:54:14.724Z,982.4
2017-04-17T00:55:17.137Z,982.4
2017-04-17T00:56:19.619Z,982.4
2017-04-17T00:57:22.064Z,982.5
2017-04-17T00:58:24.633Z,982.4
2017-04-17T00:59:27.113Z,982.3
2017-04-17T01:00:29.522Z,982.3
2017-04-17T01:01:31.890Z,982.3
2017-04-17T01:02:34.258Z,982.3
2017-04-17T01:03:36.675Z,982.2
2017-04-17T01:04:39.071Z,982.2
2017-04-17T01:05:41.441Z,982.2
2017-04-17T01:06:43.816Z,982.2
2017-04-17T01:07:46.221Z,982.1
2017-04-17T01:08:48.710Z,982.1
2017-04-17T01:09:51.140Z,982.1
2017-04-17T01:10:53.517Z,982.1
2017-04-17T01:11:55.929Z,982.1
2017-04-17T01:12:58.343Z,982.1
2017-04-17T01:14:00.696Z,982.1
2017-04-17T01:15:03.169Z,982.1
2017-04-17T01:16:05.552Z,982
2017-04-17T01:17:07.979Z,982
2017-04-17T01:18:10.379Z,982
2017-04-17T01:19:12.775Z,982.1
2017-04-17T01:20:15.229Z,982.1
2017-04-17T01:21:17.612Z,982.1
2017-04-17T01:22:20.037Z,981.8
2017-04-17T01:23:22.439Z,982.1
2017-04-17T01:24:24.903Z,982.1
2017-04-17T01:25:27.730Z,982
2017-04-17T01:26:31.231Z,982.1
2017-04-17T01:27:33.973Z,982.1
2017-04-17T01:28:36.409Z,982
2017-04-17T01:29:38.841Z,982
2017-04-17T01:30:41.237Z,982.1
2017-04-17T01:31:43.643Z,982
2017-04-17T01:32:46.017Z,982.1
2017-04-17T01:33:48.400Z,982
2017-04-17T01:34:50.837Z,982
2017-04-17T01:35:53.197Z,982
2017-04-17T01:36:55.562Z,982
2017-04-17T01:37:57.924Z,982
2017-04-17T01:39:00.350Z,982
2017-04-17T01:40:02.776Z,982
2017-04-17T01:41:05.143Z,982.1
2017-04-17T01:42:07.580Z,982
2017-04-17T01:43:10.008Z,982
2017-04-17T01:44:12.412Z,981.9
2017-04-17T01:45:14.822Z,981.9
2017-04-17T01:46:17.308Z,981.9
2017-04-17T01:47:19.693Z,981.9
2017-04-17T01:48:22.114Z,981.9
2017-04-17T01:49:24.497Z,981.9
2017-04-17T01:50:26.907Z,981.9
2017-04-17T01:51:29.314Z,981.9
2017-04-17T01:52:31.693Z,981.9
2017-04-17T01:53:34.053Z,981.8
2017-04-17T01:54:36.488Z,981.8
2017-04-17T01:55:38.906Z,981.8
2017-04-17T01:56:41.324Z,981.8
2017-04-17T01:57:43.790Z,981.9
2017-04-17T01:58:46.193Z,981.8
2017-04-17T01:59:48.589Z,981.8
2017-04-17T02:00:50.973Z,981.8
2017-04-17T02:01:53.340Z,981.7
2017-04-17T02:02:55.767Z,981.7
2017-04-17T02:03:58.196Z,981.7
2017-04-17T02:05:00.647Z,981.7
2017-04-17T02:06:03.053Z,981.7
2017-04-17T02:07:05.421Z,981.7
2017-04-17T02:08:07.877Z,981.4
2017-04-17T02:10:21.761Z,981.8
2017-04-17T02:11:24.313Z,981.7
2017-04-17T02:12:26.750Z,981.7
2017-04-17T02:13:29.198Z,981.7
2017-04-17T02:14:31.608Z,981.7
2017-04-17T02:15:34.311Z,981.7
2017-04-17T02:16:36.742Z,981.7
2017-04-17T02:17:39.240Z,981.7
2017-04-17T02:18:41.677Z,981.7
2017-04-17T02:19:44.115Z,981.6
2017-04-17T02:20:46.499Z,981.6
2017-04-17T02:21:48.925Z,981.6
2017-04-17T02:22:51.362Z,981.6
2017-04-17T02:23:53.791Z,981.6
2017-04-17T02:24:56.233Z,981.7
2017-04-17T02:25:58.686Z,981.6
2017-04-17T02:27:01.112Z,981.6
2017-04-17T02:28:03.503Z,981.6
2017-04-17T02:29:05.955Z,981.6
2017-04-17T02:30:08.380Z,981.6
2017-04-17T02:31:10.894Z,981.6
2017-04-17T08:02:56.561Z,980.1
2017-04-17T08:03:59.390Z,980.2
2017-04-17T08:05:01.908Z,980.3
2017-04-17T08:06:04.345Z,980.3
2017-04-17T08:07:06.817Z,980.3
2017-04-17T08:08:09.239Z,980.3
2017-04-17T08:09:11.648Z,980.3
2017-04-17T08:10:14.075Z,980.3
2017-04-17T08:11:16.802Z,980.2
2017-04-17T08:12:19.211Z,980.2
2017-04-17T08:13:21.675Z,980.3
2017-04-17T08:14:24.121Z,980.3
2017-04-17T08:15:26.785Z,980.3
2017-04-17T08:16:29.209Z,980.4
2017-04-17T08:17:31.640Z,980.3
2017-04-17T08:18:34.136Z,980.3
2017-04-17T08:19:36.560Z,980.4
2017-04-17T08:20:39.005Z,980.3
2017-04-17T08:21:42.551Z,980.3
2017-04-17T08:22:45.022Z,980.4
2017-04-17T08:23:48.100Z,980.3
2017-04-17T08:24:50.548Z,980.4
2017-04-17T08:25:53.055Z,980.4
2017-04-17T08:26:55.451Z,980.3
2017-04-17T08:27:57.956Z,980.3
2017-04-17T08:29:00.409Z,980
2017-04-17T08:30:02.816Z,980.2
2017-04-17T08:31:05.330Z,980.3
2017-04-17T08:32:07.772Z,980.3
2017-04-17T08:33:10.211Z,980.4
2017-04-17T08:34:12.684Z,980.3
2017-04-17T08:35:15.099Z,980.3
2017-04-17T08:36:17.577Z,980.3
2017-04-17T08:37:20.720Z,980.3
2017-04-17T08:38:23.266Z,980.3
2017-04-17T08:39:25.734Z,980.3
2017-04-17T08:40:28.137Z,980.3
2017-04-17T08:41:30.544Z,980.3
2017-04-17T08:42:33.068Z,980.3
2017-04-17T08:43:35.489Z,980.3
2017-04-17T08:44:37.920Z,980.2
2017-04-17T08:45:40.368Z,980.3
2017-04-17T08:46:43.196Z,980.2
2017-04-17T08:47:45.742Z,980.2
2017-04-17T08:48:48.165Z,980.2
2017-04-17T08:49:50.689Z,980.3
2017-04-17T08:50:53.155Z,980.2
2017-04-17T08:51:55.829Z,980.2
2017-04-17T08:52:58.308Z,980.2
2017-04-17T08:54:00.716Z,980.1
2017-04-17T08:55:03.249Z,980.2
2017-04-17T08:56:05.715Z,980.2
2017-04-17T08:57:08.324Z,980.2
2017-04-17T08:58:10.865Z,980.2
2017-04-17T08:59:13.688Z,980.2
2017-04-17T09:00:16.554Z,980.2
2017-04-17T09:01:19.391Z,980.1
2017-04-17T09:02:21.875Z,980.2
2017-04-17T09:03:24.301Z,980.2
2017-04-17T09:04:27.793Z,980.2
2017-04-17T09:05:30.284Z,980.2
2017-04-17T09:06:32.928Z,980.2
2017-04-17T09:07:35.363Z,980.2
2017-04-17T09:08:37.893Z,980.1
2017-04-17T09:09:40.351Z,980.2
2017-04-17T09:10:43.573Z,980.1
2017-04-17T09:11:46.149Z,980.1
2017-04-17T09:12:48.708Z,980.1
2017-04-17T09:13:51.905Z,980.2
2017-04-17T09:14:54.908Z,980.1
2017-04-17T09:15:58.072Z,980
2017-04-17T09:17:00.549Z,980.1
2017-04-17T09:18:03.015Z,979.9
2017-04-17T09:19:06.305Z,980
2017-04-17T09:20:08.811Z,979.9
2017-04-17T09:21:11.314Z,979.8
2017-04-17T09:22:13.794Z,979.9
2017-04-17T09:23:16.307Z,979.8
2017-04-17T09:24:19.090Z,979.9
2017-04-17T09:25:22.306Z,979.8
2017-04-17T09:26:25.594Z,979.9
2017-04-17T09:27:28.036Z,979.8
2017-04-17T09:28:30.537Z,979.9
2017-04-17T09:29:33.045Z,979.8
2017-04-17T09:30:35.541Z,979.8
2017-04-17T09:31:37.965Z,979.7
2017-04-17T09:32:40.428Z,979.7
2017-04-17T09:33:42.894Z,979.8
2017-04-17T09:34:45.337Z,979.7
2017-04-17T09:35:47.788Z,979.8
2017-04-17T09:36:51.184Z,979.4
2017-04-17T09:37:53.689Z,979.8
2017-04-17T09:38:56.135Z,979.9
2017-04-17T09:39:58.668Z,979.9
2017-04-17T09:41:01.132Z,979.9
2017-04-17T09:42:03.590Z,979.9
2017-04-17T09:43:06.070Z,979.8
2017-04-17T09:44:08.525Z,979.8
2017-04-17T09:45:10.979Z,979.8
2017-04-17T09:46:13.410Z,979.9
2017-04-17T09:47:15.875Z,979.9
2017-04-17T09:48:18.316Z,979.9
2017-04-17T09:49:20.914Z,979.6
2017-04-17T09:50:23.380Z,979.9
2017-04-17T09:51:25.835Z,979.8
2017-04-17T09:52:28.279Z,979.9
2017-04-17T09:53:30.753Z,979.9
2017-04-17T09:54:33.190Z,980
2017-04-17T09:55:37.221Z,979.7
2017-04-17T09:56:39.849Z,979.9
2017-04-17T09:57:42.421Z,979.5
2017-04-17T09:58:44.986Z,979.8
2017-04-17T09:59:47.450Z,979.8
2017-04-17T10:00:49.917Z,980
2017-04-17T10:01:52.333Z,979.8
2017-04-17T10:02:55.782Z,979.9
2017-04-17T10:03:58.280Z,979.8
2017-04-17T10:05:01.766Z,979.9
2017-04-17T10:06:04.221Z,979.9
2017-04-17T10:07:06.710Z,980
2017-04-17T10:08:10.457Z,980
2017-04-17T10:09:12.907Z,980
2017-04-17T10:10:15.431Z,980.1
2017-04-17T10:11:18.002Z,980.1
2017-04-17T10:12:20.494Z,980.2
2017-04-17T10:13:22.955Z,980.2
2017-04-17T10:14:25.380Z,980.2
2017-04-17T10:15:27.816Z,980.2
2017-04-17T10:16:30.297Z,980.2
2017-04-17T10:17:32.780Z,980.2
2017-04-17T10:18:35.346Z,980.3
2017-04-17T10:19:37.861Z,980.2
2017-04-17T10:20:40.339Z,980.3
2017-04-17T10:21:42.835Z,980.2
2017-04-17T10:22:46.313Z,980.3
2017-04-17T10:23:48.835Z,980.2
2017-04-17T10:24:51.352Z,980.3
2017-04-17T10:25:53.927Z,980.2
2017-04-17T10:26:56.448Z,980
2017-04-17T10:27:59.009Z,980.2
2017-04-17T10:29:01.707Z,980.3
2017-04-17T10:30:04.311Z,980.3
2017-04-17T10:31:06.852Z,980.3
2017-04-17T10:32:10.337Z,980.4
2017-04-17T10:33:13.704Z,980.4
2017-04-17T10:34:16.870Z,980.4
2017-04-17T10:35:19.340Z,980.4
2017-04-17T10:36:21.982Z,980.4
2017-04-17T10:37:24.465Z,980.4
2017-04-17T10:38:26.968Z,980.3
2017-04-17T10:39:29.503Z,980.3
2017-04-17T10:40:32.627Z,980.3
2017-04-17T10:41:35.021Z,980.3
2017-04-17T10:42:37.480Z,980.2
2017-04-17T10:43:40.093Z,980.2
2017-04-17T10:44:43.315Z,980.1
2017-04-17T10:45:45.766Z,980.1
2017-04-17T10:46:48.240Z,980.1
2017-04-17T10:47:50.767Z,980.1
2017-04-17T10:48:53.226Z,980.2
2017-04-17T10:49:56.637Z,979.9
2017-04-17T10:50:59.135Z,980.1
2017-04-17T10:52:01.688Z,980.1
2017-04-17T10:53:04.192Z,980.1
2017-04-17T10:54:06.654Z,980.1
2017-04-17T10:55:10.005Z,980
2017-04-17T10:56:13.000Z,980
2017-04-17T10:57:15.491Z,980
2017-04-17T10:58:18.071Z,979.8
2017-04-17T10:59:20.550Z,980.1
2017-04-17T11:00:23.058Z,980
2017-04-17T11:01:25.718Z,980
2017-04-17T11:02:31.149Z,979.9
2017-04-17T11:03:33.800Z,980
2017-04-17T11:04:36.473Z,980
2017-04-17T11:05:39.612Z,980
2017-04-17T11:06:42.221Z,980
2017-04-17T11:07:45.443Z,980
2017-04-17T11:08:48.076Z,980
2017-04-17T11:09:50.733Z,980.1
2017-04-17T11:10:53.382Z,980.1
2017-04-17T11:11:56.048Z,980.1
2017-04-17T11:12:58.599Z,980
2017-04-17T11:14:01.342Z,980
2017-04-17T11:15:03.913Z,979.7
2017-04-17T11:16:06.486Z,980
2017-04-17T11:17:09.187Z,979.9
2017-04-17T11:18:12.210Z,979.7
2017-04-17T11:19:15.405Z,979.7
2017-04-17T11:20:18.643Z,979.8
2017-04-17T11:21:22.053Z,979.8
2017-04-17T11:22:24.904Z,979.6
2017-04-17T11:23:27.476Z,979.7
2017-04-17T11:24:30.668Z,979.7
2017-04-17T11:25:33.304Z,979.7
2017-04-17T11:26:36.014Z,979.7
2017-04-17T11:27:38.760Z,979.7
2017-04-17T11:28:41.608Z,979.7
2017-04-17T11:29:44.225Z,979.6
2017-04-17T11:30:47.954Z,979.7
2017-04-17T11:31:50.584Z,979.6
2017-04-17T11:32:55.095Z,979.6
2017-04-17T11:33:57.684Z,979.6
2017-04-17T11:35:00.564Z,979.6
2017-04-17T11:36:04.048Z,979.4
2017-04-17T11:37:06.664Z,979.5
2017-04-17T11:38:09.405Z,979.5
2017-04-17T11:39:12.628Z,979.5
2017-04-17T11:40:15.251Z,979.5
2017-04-17T11:41:18.302Z,979.5
2017-04-17T11:42:21.790Z,979.3
2017-04-17T11:43:24.475Z,979.5
2017-04-17T11:44:27.224Z,979.5
2017-04-17T11:45:31.230Z,979.3
2017-04-17T11:46:33.738Z,979.6
2017-04-17T11:47:36.867Z,979.6
2017-04-17T11:48:39.472Z,979.6
2017-04-17T11:49:41.908Z,979.6
2017-04-17T11:50:44.397Z,979.7
2017-04-17T11:51:47.381Z,979.7
2017-04-17T11:52:49.960Z,979.7
2017-04-17T11:53:52.715Z,979.6
2017-04-17T11:54:55.438Z,979.3
2017-04-17T11:55:58.026Z,979.5
2017-04-17T11:57:00.777Z,979.5
2017-04-17T11:58:03.288Z,979.5
2017-04-17T11:59:05.863Z,979.5
2017-04-17T12:00:08.665Z,979.2
2017-04-17T12:01:11.229Z,979.5
2017-04-17T12:02:13.931Z,979.1
2017-04-17T12:03:16.566Z,979.4
2017-04-17T12:04:19.245Z,979.5
2017-04-17T12:05:30.143Z,979.2
2017-04-17T12:06:32.910Z,979.4
2017-04-17T12:07:35.567Z,979.1
2017-04-17T12:08:38.293Z,979.4
2017-04-17T12:09:41.198Z,979.4
2017-04-17T12:10:44.043Z,979.1
2017-04-17T12:11:48.723Z,979.4
2017-04-17T12:12:51.392Z,979.4
2017-04-17T12:13:54.465Z,979.2
2017-04-17T12:14:57.079Z,979.2
2017-04-17T12:15:59.745Z,979.5
2017-04-17T12:17:02.350Z,979.5
2017-04-17T12:18:04.853Z,979.6
2017-04-17T12:19:08.113Z,979.7
2017-04-17T12:20:11.304Z,979.4
2017-04-17T12:21:13.774Z,979.5
2017-04-17T12:22:16.429Z,979.7
2017-04-17T12:23:19.020Z,979.7
2017-04-17T12:24:21.689Z,979.8
2017-04-17T12:25:24.161Z,979.8
2017-04-17T12:26:27.299Z,979.8
2017-04-17T12:27:29.786Z,979.8
2017-04-17T12:28:33.458Z,979.8
2017-04-17T12:29:35.949Z,979.7
2017-04-17T12:30:38.421Z,979.7
2017-04-17T12:31:42.964Z,979.7
2017-04-17T12:32:45.387Z,979.7
2017-04-17T12:33:47.870Z,979.7
2017-04-17T12:34:50.611Z,979.7
2017-04-17T12:35:53.060Z,979.6
2017-04-17T12:36:56.901Z,979.6
2017-04-17T12:38:00.586Z,979.6
2017-04-17T12:39:03.054Z,979.6
2017-04-17T12:40:06.301Z,979.4
2017-04-17T12:41:08.904Z,979.6
2017-04-17T12:42:11.403Z,979.5
2017-04-17T12:43:13.841Z,979.6
2017-04-17T12:44:17.075Z,979.5
2017-04-17T12:45:19.594Z,979.5
2017-04-17T12:46:22.601Z,979.5
2017-04-17T12:47:25.429Z,979.5
2017-04-17T12:48:28.626Z,979.5
2017-04-17T12:49:31.736Z,979.5
2017-04-17T12:50:34.190Z,979.5
2017-04-17T12:51:36.660Z,979.5
2017-04-17T12:52:39.624Z,979.5
2017-04-17T12:53:42.065Z,979.2
2017-04-17T12:54:44.502Z,979.6
2017-04-17T12:55:47.049Z,979.5
2017-04-17T12:56:49.576Z,979.6
2017-04-17T12:57:52.032Z,979.5
2017-04-17T12:58:54.565Z,979.5
2017-04-17T12:59:57.031Z,979.6
2017-04-17T13:00:59.793Z,979.5
2017-04-17T13:02:02.224Z,979.5
2017-04-17T13:03:04.756Z,979.5
2017-04-17T13:04:07.228Z,979.5
2017-04-17T13:05:09.742Z,979.6
2017-04-17T13:06:12.201Z,979.6
2017-04-17T13:07:14.712Z,979.7
2017-04-17T13:08:17.263Z,979.6
2017-04-17T13:09:19.714Z,979.4
2017-04-17T13:10:22.897Z,979.7
2017-04-17T13:11:25.388Z,979.5
2017-04-17T13:12:27.829Z,979.3
2017-04-17T13:13:30.297Z,979.7
2017-04-17T13:14:33.543Z,979.7
2017-04-17T13:15:36.740Z,979.7
2017-04-17T13:16:39.255Z,979.5
2017-04-17T13:17:41.734Z,979.6
2017-04-17T13:18:44.201Z,979.7
2017-04-17T13:19:46.617Z,979.6
2017-04-17T13:20:49.090Z,979.6
2017-04-17T13:21:51.623Z,979.4
2017-04-17T13:22:54.075Z,979.6
2017-04-17T13:23:56.531Z,979.6
2017-04-17T13:24:58.936Z,979.5
2017-04-17T13:26:01.438Z,979.6
2017-04-17T13:27:03.883Z,979.5
2017-04-17T13:28:06.990Z,979.6
2017-04-17T13:29:09.769Z,979.6
2017-04-17T13:30:12.773Z,979.7
2017-04-17T13:31:15.197Z,979.6
2017-04-17T13:32:17.791Z,979.7
2017-04-17T13:33:20.368Z,979.4
2017-04-17T13:34:23.019Z,979.8
2017-04-17T13:35:26.772Z,979.8
2017-04-17T13:36:29.320Z,979.8
2017-04-17T13:37:33.947Z,979.9
2017-04-17T13:38:36.394Z,979.9
2017-04-17T13:39:38.909Z,980
2017-04-17T13:40:41.435Z,980
2017-04-17T13:41:43.935Z,980.1
2017-04-17T13:42:47.168Z,980
2017-04-17T13:43:49.723Z,979.8
2017-04-17T13:44:52.135Z,980.1
2017-04-17T13:45:54.526Z,980.1
2017-04-17T13:46:57.037Z,980.1
2017-04-17T13:48:00.125Z,980.2
2017-04-17T13:49:02.560Z,980.1
2017-04-17T13:50:05.078Z,980.1
2017-04-17T13:51:07.574Z,980.1
2017-04-17T13:52:10.055Z,980.2
2017-04-17T13:53:12.626Z,980.2
2017-04-17T13:54:16.245Z,980.1
2017-04-17T13:55:19.632Z,980.2
2017-04-17T13:56:22.270Z,980.2
2017-04-17T13:57:25.338Z,980.3
2017-04-17T13:58:28.752Z,980.2
2017-04-17T13:59:32.225Z,979.9
2017-04-17T14:00:34.882Z,980
2017-04-17T14:01:37.641Z,980.2
2017-04-17T14:02:40.939Z,980.1
2017-04-17T14:03:43.480Z,980.2
2017-04-17T14:04:45.928Z,980.1
2017-04-17T14:05:48.483Z,980
2017-04-17T14:06:50.946Z,980.1
2017-04-17T14:07:53.393Z,979.8
2017-04-17T14:08:55.885Z,980
2017-04-17T14:09:59.024Z,980
2017-04-17T14:11:01.584Z,980
2017-04-17T14:12:05.581Z,980
2017-04-17T14:13:08.090Z,980
2017-04-17T14:14:10.611Z,979.9
2017-04-17T14:15:13.046Z,980
2017-04-17T14:16:15.569Z,979.9
2017-04-17T14:17:19.314Z,980
2017-04-17T14:18:21.756Z,980
2017-04-17T14:19:24.264Z,980
2017-04-17T14:20:26.788Z,980
2017-04-17T14:21:29.330Z,979.9
2017-04-17T14:22:31.762Z,979.8
2017-04-17T14:23:34.946Z,980
2017-04-17T14:24:37.413Z,980.1
2017-04-17T14:25:39.879Z,980.1
2017-04-17T14:26:42.394Z,980.1
2017-04-17T14:27:44.867Z,980.1
2017-04-17T14:28:47.349Z,980.2
2017-04-17T14:29:49.821Z,980.2
2017-04-17T14:30:52.339Z,980.3
2017-04-17T14:31:55.424Z,980.3
2017-04-17T14:32:57.889Z,980.5
2017-04-17T14:34:01.019Z,980.5
2017-04-17T14:35:04.377Z,980.5
2017-04-17T14:36:06.875Z,980.7
2017-04-17T14:37:09.394Z,980.7
2017-04-17T14:38:13.120Z,980.8
2017-04-17T14:39:16.541Z,980.9
2017-04-17T14:40:19.039Z,981
2017-04-17T14:41:23.631Z,981
2017-04-17T14:42:26.707Z,980.8
2017-04-17T14:43:29.183Z,980.8
2017-04-17T14:44:31.700Z,980.7
2017-04-17T14:45:34.188Z,980.4
2017-04-17T14:46:36.713Z,980.4
2017-04-17T14:47:39.175Z,980.5
2017-04-17T14:48:41.728Z,980.5
2017-04-17T14:49:45.222Z,980.5
2017-04-17T14:50:47.829Z,980.4
2017-04-17T14:51:50.330Z,980.3
2017-04-17T14:52:52.885Z,980.3
2017-04-17T14:53:55.676Z,980.2
2017-04-17T14:54:58.131Z,980.3
2017-04-17T14:56:01.265Z,980.2
2017-04-17T14:57:04.616Z,980
2017-04-17T14:58:09.476Z,980.1
2017-04-17T14:59:12.428Z,980.2
2017-04-17T15:00:14.941Z,980.2
2017-04-17T15:01:18.004Z,980.2
2017-04-17T15:02:20.626Z,979.9
2017-04-17T15:03:23.203Z,980.2
2017-04-17T15:04:25.869Z,980.2
2017-04-17T15:05:29.122Z,980.2
2017-04-17T15:06:31.743Z,980
2017-04-17T15:07:34.426Z,980.3
2017-04-17T15:08:37.113Z,980.3
2017-04-17T15:09:39.741Z,980.3
2017-04-17T15:10:42.305Z,979.9
2017-04-17T15:11:45.434Z,980.2
2017-04-17T15:12:47.966Z,980.2
2017-04-17T15:13:50.528Z,980.1
2017-04-17T15:14:53.251Z,980.2
2017-04-17T15:15:55.787Z,980.2
2017-04-17T15:16:58.229Z,980.2
2017-04-17T15:18:00.800Z,980.2
2017-04-17T15:19:03.261Z,979.9
2017-04-17T15:20:05.786Z,980.1
2017-04-17T15:21:08.274Z,980.1
2017-04-17T15:22:11.953Z,979.9
2017-04-17T15:23:14.447Z,980.1
2017-04-17T15:24:16.914Z,980.1
2017-04-17T15:25:19.439Z,980.1
2017-04-17T15:26:22.003Z,980.1
2017-04-17T15:27:24.495Z,980.1
2017-04-17T15:28:27.021Z,980.1
2017-04-17T15:29:31.158Z,980.2
2017-04-17T15:30:33.652Z,980.1
2017-04-17T15:31:36.388Z,980.2
2017-04-17T15:32:38.986Z,980.1
2017-04-17T15:33:41.687Z,980.1
2017-04-17T15:34:44.148Z,980.1
2017-04-17T15:35:47.380Z,980.2
2017-04-17T15:36:49.864Z,980.2
2017-04-17T15:37:52.557Z,980.1
2017-04-17T15:38:55.008Z,980.1
2017-04-17T15:39:57.773Z,980.1
2017-04-17T15:41:00.287Z,980.1
2017-04-17T15:42:02.986Z,980.2
2017-04-17T15:43:05.464Z,980.2
2017-04-17T15:44:08.326Z,980.2
2017-04-17T15:45:10.805Z,980.2
2017-04-17T15:46:13.710Z,980.2
2017-04-17T15:47:16.239Z,980.3
2017-04-17T15:48:19.195Z,980.1
2017-04-17T15:49:22.869Z,980.4
2017-04-17T15:50:25.949Z,980.4
2017-04-17T15:51:28.431Z,980.5
2017-04-17T15:52:34.754Z,980.5
2017-04-17T15:53:37.320Z,980.6
2017-04-17T15:54:40.095Z,980.7
2017-04-17T15:55:43.221Z,980.7
2017-04-17T15:56:46.322Z,980.8
2017-04-17T15:57:49.957Z,980.7
2017-04-17T15:58:54.265Z,980.7
2017-04-17T15:59:56.760Z,980.6
2017-04-17T16:00:59.311Z,980.5
2017-04-17T16:02:02.530Z,980.8
2017-04-17T16:03:05.021Z,980.6
2017-04-17T16:04:08.496Z,980.8
2017-04-17T16:05:11.022Z,980.8
2017-04-17T16:06:13.427Z,980.9
2017-04-17T16:07:15.922Z,980.9
2017-04-17T16:08:18.537Z,980.8
2017-04-17T16:09:21.261Z,980.8
2017-04-17T16:10:24.269Z,980.9
2017-04-17T16:11:26.684Z,981
2017-04-17T16:12:29.160Z,980.5
2017-04-17T16:13:31.670Z,980.9
2017-04-17T16:14:34.155Z,981
2017-04-17T16:15:36.640Z,981
2017-04-17T16:16:39.087Z,981.1
2017-04-17T16:17:42.162Z,981.1
2017-04-17T16:18:44.644Z,981.1
2017-04-17T16:19:47.353Z,981.1
2017-04-17T16:20:49.852Z,981.2
2017-04-17T16:21:52.868Z,981.1
2017-04-17T16:22:55.349Z,981.3
2017-04-17T16:23:57.873Z,981.2
2017-04-17T16:25:00.989Z,981.3
2017-04-17T16:26:03.496Z,981.2
2017-04-17T16:27:05.975Z,981.3
2017-04-17T16:28:08.434Z,981.3
2017-04-17T16:29:12.425Z,981.3
2017-04-17T16:30:14.901Z,981.3
2017-04-17T16:31:17.996Z,981.3
2017-04-17T16:32:20.498Z,981.3
2017-04-17T16:33:24.037Z,981.3
2017-04-17T16:34:26.495Z,981.3
2017-04-17T16:35:28.920Z,981.3
2017-04-17T16:36:32.072Z,981.3
2017-04-17T16:37:35.107Z,981.4
2017-04-17T16:38:38.325Z,981.3
2017-04-17T16:39:41.444Z,981.3
2017-04-17T16:40:44.513Z,981.2
2017-04-17T16:41:47.077Z,981.2
2017-04-17T16:42:49.898Z,981
2017-04-17T16:43:52.385Z,981.3
2017-04-17T16:44:54.862Z,981.2
2017-04-17T16:45:58.121Z,981.2
2017-04-17T16:47:02.368Z,981.2
2017-04-17T16:48:04.805Z,981.2
2017-04-17T16:49:07.817Z,981.2
2017-04-17T16:50:10.240Z,981.2
2017-04-17T16:51:12.773Z,981.2
2017-04-17T16:52:15.209Z,981.2
2017-04-17T16:53:17.690Z,981.3
2017-04-17T16:54:20.208Z,981.2
2017-04-17T16:55:23.252Z,981.1
2017-04-17T16:56:26.322Z,981.2
2017-04-17T16:57:28.804Z,981.2
2017-04-17T16:58:31.329Z,981.2
2017-04-17T16:59:33.830Z,981.3
2017-04-17T17:00:37.594Z,981.2
2017-04-17T17:01:40.101Z,981.3
2017-04-17T17:02:42.561Z,981.2
2017-04-17T17:03:45.021Z,981
2017-04-17T17:04:47.460Z,981.2
2017-04-17T17:05:50.081Z,981.2
2017-04-17T17:06:53.088Z,981.3
2017-04-17T17:07:55.609Z,981.2
2017-04-17T17:08:58.167Z,981.2
2017-04-17T17:10:00.853Z,981.2
2017-04-17T17:11:04.446Z,981.2
2017-04-17T17:12:07.055Z,981.2
2017-04-17T17:13:09.638Z,980.9
2017-04-17T17:14:12.118Z,981.3
2017-04-17T17:15:14.640Z,981.2
2017-04-17T17:16:17.393Z,981.3
2017-04-17T17:17:20.251Z,981.3
2017-04-17T17:18:23.549Z,981.2
2017-04-17T17:19:26.700Z,981.2
2017-04-17T17:20:30.253Z,981.2
2017-04-17T17:21:33.220Z,981.2
2017-04-17T17:22:35.632Z,981.3
2017-04-17T17:23:38.114Z,981.3
2017-04-17T17:24:40.572Z,981.4
2017-04-17T17:25:43.630Z,981.4
2017-04-17T17:26:47.350Z,981.4
2017-04-17T17:27:49.868Z,981.4
2017-04-17T17:28:52.956Z,981.5
2017-04-17T17:29:55.541Z,981.5
2017-04-17T17:30:58.093Z,981.5
2017-04-17T17:32:01.255Z,981.5
2017-04-17T17:33:04.676Z,981.4
2017-04-17T17:34:07.210Z,981.4
2017-04-17T17:35:10.573Z,981.3
2017-04-17T17:36:13.665Z,981.3
2017-04-17T17:37:18.075Z,981.3
2017-04-17T17:38:20.568Z,981.3
2017-04-17T17:39:24.665Z,981.4
2017-04-17T17:40:27.166Z,981.4
2017-04-17T17:41:29.649Z,981.4
2017-04-17T17:42:32.080Z,981.4
2017-04-17T17:43:34.578Z,981.5
2017-04-17T17:44:37.126Z,981.5
2017-04-17T17:45:39.628Z,981.4
2017-04-17T17:46:42.829Z,981.4
2017-04-17T17:47:45.239Z,981.5
2017-04-17T17:48:47.794Z,981.3
2017-04-17T17:49:50.263Z,981.5
2017-04-17T17:50:52.770Z,981.5
2017-04-17T17:51:55.226Z,981.6
2017-04-17T17:52:57.714Z,981.6
2017-04-17T17:54:00.296Z,981.7
2017-04-17T17:55:02.825Z,981.7
2017-04-17T17:56:05.338Z,981.4
2017-04-17T17:57:07.837Z,981.7
2017-04-17T17:58:10.354Z,981.7
2017-04-17T17:59:13.979Z,981.7
2017-04-17T18:00:16.410Z,981.8
2017-04-17T18:01:19.453Z,981.8
2017-04-17T18:02:21.922Z,981.5
2017-04-17T18:03:24.381Z,981.3
2017-04-17T18:04:26.852Z,981.7
2017-04-17T18:05:29.383Z,981.8
2017-04-17T18:06:31.885Z,981.7
2017-04-17T18:07:35.148Z,981.4
2017-04-17T18:08:37.608Z,981.7
2017-04-17T18:09:40.096Z,981.7
2017-04-17T18:10:42.596Z,981.7
2017-04-17T18:11:45.042Z,981.7
2017-04-17T18:12:52.372Z,981.7
2017-04-17T18:13:54.944Z,981.7
2017-04-17T18:14:57.533Z,981.8
2017-04-17T18:16:00.045Z,981.7
2017-04-17T18:17:02.562Z,981.8
2017-04-17T18:18:05.143Z,981.7
2017-04-17T18:19:07.602Z,981.7
2017-04-17T18:20:10.845Z,981.7
2017-04-17T18:21:13.278Z,981.8
2017-04-17T18:22:15.796Z,981.7
2017-04-17T18:23:18.246Z,981.9
2017-04-17T18:24:20.845Z,981.8
2017-04-17T18:25:23.393Z,981.8
2017-04-17T18:26:25.884Z,981.6
2017-04-17T18:27:28.326Z,981.9
2017-04-17T18:28:31.616Z,981.9
2017-04-17T18:29:34.121Z,981.9
2017-04-17T18:30:36.615Z,981.9
2017-04-17T18:31:39.137Z,981.8
2017-04-17T18:32:41.684Z,981.9
2017-04-17T18:33:44.863Z,981.9
2017-04-17T18:34:48.585Z,981.9
2017-04-17T18:35:51.092Z,981.8
2017-04-17T18:36:53.588Z,981.9
2017-04-17T18:37:57.998Z,981.9
2017-04-17T18:39:00.542Z,981.9
2017-04-17T18:40:02.990Z,981.9
2017-04-17T18:41:06.157Z,981.9
2017-04-17T18:42:08.760Z,982
2017-04-17T18:43:11.238Z,982
2017-04-17T18:44:13.764Z,982.1
2017-04-17T18:45:18.064Z,981.9
2017-04-17T18:46:20.773Z,982.3
2017-04-17T18:47:23.211Z,982.3
2017-04-17T18:48:25.684Z,982.2
2017-04-17T18:49:28.197Z,982.2
2017-04-17T18:50:30.690Z,982.2
2017-04-17T18:51:33.197Z,982.2
2017-04-17T18:52:35.716Z,982.3
2017-04-17T18:53:38.306Z,982.3
2017-04-17T18:54:41.138Z,982.3
2017-04-17T19:28:41.012Z,982.4
2017-04-17T19:29:45.218Z,982.3
2017-04-17T19:30:48.468Z,982.3
2017-04-17T19:31:51.346Z,982.3
2017-04-17T19:32:53.987Z,982.4
2017-04-17T19:33:56.782Z,982.4
2017-04-17T19:35:00.423Z,982.4
2017-04-17T19:36:03.670Z,982.5